createdAt,value
2022-08-25T00:02:13.731Z,26.40
2022-08-25T00:04:40.519Z,28.20
2022-08-25T00:07:09.081Z,27.20
2022-08-25T00:09:35.757Z,28.60
2022-08-25T00:12:04.897Z,28.80
2022-08-25T00:14:34.217Z,27.60
2022-08-25T00:17:01.575Z,26.30
2022-08-25T00:19:31.923Z,27.00
2022-08-25T00:21:59.377Z,33.00
2022-08-25T00:24:26.609Z,30.90
2022-08-25T00:26:56.544Z,28.80
2022-08-25T00:29:25.669Z,26.20
2022-08-25T00:31:52.997Z,26.80
2022-08-25T00:34:23.092Z,30.60
2022-08-25T00:36:53.135Z,29.00
2022-08-25T00:39:21.917Z,24.70
2022-08-25T00:41:50.776Z,29.40
2022-08-25T00:44:19.118Z,28.50
2022-08-25T00:46:51.646Z,28.80
2022-08-25T00:49:25.447Z,25.10
2022-08-25T00:51:59.457Z,28.20
2022-08-25T00:54:34.527Z,27.20
2022-08-25T00:57:01.547Z,30.10
2022-08-25T00:59:28.787Z,30.10
2022-08-25T01:01:56.268Z,29.00
2022-08-25T01:04:25.233Z,29.30
2022-08-25T01:06:52.596Z,32.40
2022-08-25T01:09:20.062Z,29.20
2022-08-25T01:11:47.816Z,31.20
2022-08-25T01:14:18.028Z,29.20
2022-08-25T01:16:45.216Z,27.00
2022-08-25T01:19:15.153Z,28.50
2022-08-25T01:21:48.657Z,28.00
2022-08-25T01:25:13.959Z,31.00
2022-08-25T01:27:40.546Z,28.30
2022-08-25T01:30:07.605Z,32.00
2022-08-25T01:32:35.076Z,26.70
2022-08-25T01:35:01.699Z,29.80
2022-08-25T01:37:28.347Z,28.60
2022-08-25T01:39:54.927Z,30.50
2022-08-25T01:43:00.038Z,28.80
2022-08-25T01:45:27.351Z,31.90
2022-08-25T01:47:55.636Z,30.30
2022-08-25T01:50:22.275Z,30.30
2022-08-25T01:52:55.120Z,29.50
2022-08-25T01:55:22.986Z,32.20
2022-08-25T01:57:49.656Z,28.40
2022-08-25T02:00:19.209Z,29.30
2022-08-25T02:02:46.286Z,30.80
2022-08-25T02:05:19.328Z,29.10
2022-08-25T02:07:49.316Z,28.50
2022-08-25T02:10:15.957Z,30.10
2022-08-25T02:12:44.032Z,30.20
2022-08-25T02:15:11.076Z,30.60
2022-08-25T02:17:37.815Z,31.90
2022-08-25T02:20:08.742Z,31.10
2022-08-25T02:22:35.415Z,34.90
2022-08-25T02:25:02.237Z,29.10
2022-08-25T02:27:29.218Z,32.70
2022-08-25T02:29:56.056Z,32.90
2022-08-25T02:32:22.856Z,30.70
2022-08-25T02:34:49.494Z,26.70
2022-08-25T02:37:16.677Z,31.80
2022-08-25T02:39:43.176Z,30.00
2022-08-25T02:42:09.818Z,30.60
2022-08-25T02:44:37.479Z,28.80
2022-08-25T02:47:04.421Z,33.20
2022-08-25T02:49:32.017Z,31.80
2022-08-25T02:52:00.395Z,29.70
2022-08-25T02:54:28.658Z,35.00
2022-08-25T02:56:55.297Z,28.60
2022-08-25T02:59:22.436Z,30.50
2022-08-25T03:01:49.276Z,27.60
2022-08-25T03:04:17.336Z,30.50
2022-08-25T03:06:45.448Z,34.30
2022-08-25T03:09:12.580Z,27.80
2022-08-25T03:11:39.515Z,30.30
2022-08-25T03:14:08.917Z,31.70
2022-08-25T03:16:35.866Z,31.50
2022-08-25T03:19:04.355Z,31.90
2022-08-25T03:21:38.056Z,31.30
2022-08-25T03:24:06.836Z,31.20
2022-08-25T03:26:51.789Z,30.90
2022-08-25T03:29:18.555Z,28.50
2022-08-25T03:31:45.457Z,30.60
2022-08-25T03:34:16.501Z,32.90
2022-08-25T03:36:44.716Z,33.90
2022-08-25T03:39:11.876Z,33.60
2022-08-25T03:41:38.896Z,32.70
2022-08-25T03:44:06.875Z,29.90
2022-08-25T03:46:37.158Z,35.30
2022-08-25T03:49:05.406Z,35.90
2022-08-25T03:51:37.832Z,31.70
2022-08-25T03:54:05.928Z,29.00
2022-08-25T03:56:32.855Z,32.60
2022-08-25T03:59:00.415Z,39.30
2022-08-25T04:01:27.315Z,38.30
2022-08-25T04:03:54.615Z,31.30
2022-08-25T04:06:23.184Z,35.80
2022-08-25T04:08:52.387Z,36.60
2022-08-25T04:11:21.069Z,38.10
2022-08-25T04:13:48.855Z,43.10
2022-08-25T04:16:19.894Z,39.90
2022-08-25T04:18:47.663Z,42.90
2022-08-25T04:21:14.798Z,40.60
2022-08-25T04:23:44.092Z,40.70
2022-08-25T04:26:19.651Z,33.90
2022-08-25T04:28:47.306Z,35.40
2022-08-25T04:31:15.494Z,36.20
2022-08-25T04:33:42.856Z,33.70
2022-08-25T04:36:13.386Z,36.70
2022-08-25T04:38:42.420Z,34.00
2022-08-25T04:41:10.978Z,37.20
2022-08-25T04:43:38.901Z,34.50
2022-08-25T04:46:12.139Z,33.70
2022-08-25T04:48:40.061Z,34.40
2022-08-25T04:51:07.961Z,33.00
2022-08-25T04:53:34.517Z,35.50
2022-08-25T04:56:03.822Z,34.10
2022-08-25T04:58:31.232Z,32.80
2022-08-25T05:01:06.386Z,36.70
2022-08-25T05:03:33.579Z,35.90
2022-08-25T05:06:00.956Z,36.00
2022-08-25T05:08:28.431Z,32.30
2022-08-25T05:10:56.712Z,31.90
2022-08-25T05:13:26.639Z,31.50
2022-08-25T05:16:02.590Z,31.30
2022-08-25T05:18:31.663Z,31.20
2022-08-25T05:21:03.311Z,31.70
2022-08-25T05:23:30.991Z,32.50
2022-08-25T05:26:06.529Z,33.80
2022-08-25T05:28:34.392Z,30.90
2022-08-25T05:31:02.560Z,33.20
2022-08-25T05:33:30.588Z,32.30
2022-08-25T05:35:59.032Z,31.70
2022-08-25T05:38:25.670Z,33.00
2022-08-25T05:41:15.339Z,37.90
2022-08-25T05:43:43.584Z,32.60
2022-08-25T05:46:10.199Z,37.10
2022-08-25T05:48:36.739Z,38.30
2022-08-25T05:51:06.268Z,37.80
2022-08-25T05:53:34.372Z,34.80
2022-08-25T05:56:01.739Z,36.30
2022-08-25T05:58:29.466Z,33.40
2022-08-25T06:01:18.419Z,47.60
2022-08-25T06:03:47.349Z,31.70
2022-08-25T06:06:15.625Z,32.40
2022-08-25T06:08:45.722Z,33.80
2022-08-25T06:11:14.113Z,31.90
2022-08-25T06:13:41.056Z,29.50
2022-08-25T06:16:07.956Z,31.70
2022-08-25T06:18:35.237Z,36.20
2022-08-25T06:21:16.957Z,31.80
2022-08-25T06:23:44.292Z,29.70
2022-08-25T06:26:20.593Z,31.50
2022-08-25T06:28:50.357Z,25.70
2022-08-25T06:31:17.222Z,32.70
2022-08-25T06:33:44.705Z,28.10
2022-08-25T06:36:11.513Z,30.00
2022-08-25T06:38:38.254Z,28.20
2022-08-25T06:41:06.834Z,30.60
2022-08-25T06:43:33.871Z,31.70
2022-08-25T06:46:15.792Z,30.70
2022-08-25T06:48:43.239Z,32.80
2022-08-25T06:51:13.926Z,30.50
2022-08-25T06:53:42.232Z,32.60
2022-08-25T06:56:10.013Z,33.10
2022-08-25T06:58:37.260Z,29.20
2022-08-25T07:01:15.667Z,28.90
2022-08-25T07:03:46.908Z,30.10
2022-08-25T07:06:15.093Z,31.10
2022-08-25T07:08:46.747Z,27.20
2022-08-25T07:11:16.397Z,27.50
2022-08-25T07:13:45.129Z,31.20
2022-08-25T07:16:12.254Z,28.20
2022-08-25T07:18:39.158Z,27.60
2022-08-25T07:21:08.774Z,28.10
2022-08-25T07:23:37.049Z,29.70
2022-08-25T07:26:15.686Z,30.00
2022-08-25T07:28:48.919Z,31.60
2022-08-25T07:31:17.432Z,31.70
2022-08-25T07:34:03.677Z,30.60
2022-08-25T07:36:31.565Z,34.60
2022-08-25T07:38:58.973Z,29.60
2022-08-25T07:41:27.213Z,27.90
2022-08-25T07:43:54.039Z,36.00
2022-08-25T07:46:20.862Z,31.80
2022-08-25T07:48:53.235Z,34.50
2022-08-25T07:51:20.283Z,30.70
2022-08-25T07:53:46.931Z,28.10
2022-08-25T07:56:16.035Z,31.70
2022-08-25T07:58:43.439Z,31.20
2022-08-25T08:01:22.848Z,30.50
2022-08-25T08:03:51.540Z,31.30
2022-08-25T08:06:23.700Z,27.50
2022-08-25T08:08:54.576Z,28.30
2022-08-25T08:11:26.875Z,33.00
2022-08-25T08:13:55.662Z,30.60
2022-08-25T08:16:24.678Z,27.90
2022-08-25T08:18:52.075Z,27.50
2022-08-25T08:21:24.918Z,28.70
2022-08-25T08:23:58.126Z,23.10
2022-08-25T08:26:36.266Z,22.10
2022-08-25T08:29:08.696Z,23.40
2022-08-25T08:31:36.755Z,22.10
2022-08-25T08:34:04.003Z,25.10
2022-08-25T08:36:31.449Z,22.80
2022-08-25T08:38:58.158Z,20.50
2022-08-25T08:42:09.576Z,20.00
2022-08-25T08:44:32.531Z,23.10
2022-08-25T08:47:44.420Z,22.70
2022-08-25T08:50:27.677Z,22.80
2022-08-25T08:53:07.301Z,19.20
2022-08-25T08:56:01.837Z,21.60
2022-08-25T08:58:50.006Z,20.50
2022-08-25T09:01:26.295Z,18.20
2022-08-25T09:03:59.277Z,21.60
2022-08-25T09:06:32.166Z,18.60
2022-08-25T09:09:03.166Z,15.90
2022-08-25T09:11:42.722Z,16.70
2022-08-25T09:14:39.704Z,22.20
2022-08-25T09:17:26.506Z,15.30
2022-08-25T09:20:28.164Z,18.40
2022-08-25T09:23:26.849Z,17.10
2022-08-25T09:26:14.634Z,17.20
2022-08-25T09:28:51.262Z,16.20
2022-08-25T09:31:29.904Z,15.60
2022-08-25T09:33:58.436Z,16.30
2022-08-25T09:36:25.508Z,16.80
2022-08-25T09:38:52.558Z,19.60
2022-08-25T09:41:46.246Z,19.20
2022-08-25T09:44:19.425Z,15.30
2022-08-25T09:47:15.646Z,15.40
2022-08-25T09:49:49.153Z,15.80
2022-08-25T09:52:42.217Z,18.90
2022-08-25T09:55:09.272Z,13.80
2022-08-25T09:57:42.773Z,17.40
2022-08-25T10:00:14.465Z,14.90
2022-08-25T10:02:42.480Z,20.00
2022-08-25T10:05:25.874Z,18.20
2022-08-25T10:07:58.498Z,14.40
2022-08-25T10:10:34.648Z,17.10
2022-08-25T10:13:03.196Z,15.10
2022-08-25T10:15:36.510Z,15.90
2022-08-25T10:18:23.337Z,18.80
2022-08-25T10:21:09.899Z,13.80
2022-08-25T10:23:43.062Z,18.60
2022-08-25T10:26:16.722Z,13.70
2022-08-25T10:29:00.133Z,18.40
2022-08-25T10:31:41.600Z,14.90
2022-08-25T10:34:23.872Z,18.10
2022-08-25T10:37:15.473Z,15.50
2022-08-25T10:39:58.646Z,14.20
2022-08-25T10:42:39.166Z,16.30
2022-08-25T10:45:36.421Z,17.50
2022-08-25T10:49:01.032Z,15.00
2022-08-25T10:51:55.193Z,14.20
2022-08-25T10:54:42.524Z,13.40
2022-08-25T10:57:32.194Z,16.00
2022-08-25T11:00:23.259Z,20.10
2022-08-25T11:03:13.731Z,17.60
2022-08-25T11:05:46.280Z,14.10
2022-08-25T11:08:21.432Z,15.40
2022-08-25T11:11:11.518Z,15.00
2022-08-25T11:13:58.950Z,15.40
2022-08-25T11:16:53.585Z,17.50
2022-08-25T11:19:35.957Z,20.50
2022-08-25T11:22:15.582Z,17.50
2022-08-25T11:24:54.920Z,16.40
2022-08-25T11:27:24.326Z,19.00
2022-08-25T11:30:13.964Z,17.30
2022-08-25T11:32:45.240Z,17.10
2022-08-25T11:35:14.028Z,15.50
2022-08-25T11:38:02.829Z,20.70
2022-08-25T11:40:35.333Z,16.90
2022-08-25T11:43:11.171Z,21.50
2022-08-25T11:45:46.420Z,22.10
2022-08-25T11:48:35.961Z,16.90
2022-08-25T11:51:07.506Z,15.90
2022-08-25T11:53:39.047Z,18.90
2022-08-25T11:56:30.135Z,20.90
2022-08-25T11:58:57.703Z,22.20
2022-08-25T12:01:40.109Z,16.80
2022-08-25T12:04:30.936Z,17.90
2022-08-25T12:07:07.224Z,22.10
2022-08-25T12:09:54.529Z,18.10
2022-08-25T12:12:41.614Z,22.30
2022-08-25T12:15:42.392Z,23.30
2022-08-25T12:18:16.600Z,18.90
2022-08-25T12:20:57.861Z,22.30
2022-08-25T12:23:38.206Z,16.40
2022-08-25T12:26:20.608Z,25.80
2022-08-25T12:28:50.542Z,19.50
2022-08-25T12:31:29.360Z,22.00
2022-08-25T12:34:26.792Z,20.80
2022-08-25T12:37:06.472Z,21.40
2022-08-25T12:39:42.113Z,22.60
2022-08-25T12:42:28.709Z,20.70
2022-08-25T12:45:37.858Z,19.50
2022-08-25T12:48:34.380Z,21.00
2022-08-25T12:51:04.142Z,21.60
2022-08-25T12:53:53.766Z,20.10
2022-08-25T12:56:27.996Z,20.40
2022-08-25T12:59:21.508Z,17.00
2022-08-25T13:02:13.231Z,20.80
2022-08-25T13:05:15.221Z,21.80
2022-08-25T13:07:51.581Z,23.60
2022-08-25T13:10:42.493Z,23.70
2022-08-25T13:13:12.332Z,20.20
2022-08-25T13:15:44.915Z,17.90
2022-08-25T13:18:27.108Z,17.30
2022-08-25T13:21:18.363Z,20.30
2022-08-25T13:23:50.900Z,25.00
2022-08-25T13:26:27.210Z,19.80
2022-08-25T13:28:59.322Z,23.10
2022-08-25T13:31:30.255Z,24.10
2022-08-25T13:34:03.514Z,19.90
2022-08-25T13:37:05.222Z,24.70
2022-08-25T13:39:54.852Z,27.90
2022-08-25T13:42:23.997Z,19.80
2022-08-25T13:44:56.166Z,19.60
2022-08-25T13:47:43.688Z,20.60
2022-08-25T13:50:22.726Z,22.00
2022-08-25T13:52:57.955Z,18.80
2022-08-25T13:55:38.239Z,26.70
2022-08-25T13:58:39.255Z,27.70
2022-08-25T14:01:46.855Z,26.40
2022-08-25T14:04:29.370Z,28.90
2022-08-25T14:07:14.220Z,28.40
2022-08-25T14:09:46.868Z,23.00
2022-08-25T14:12:38.243Z,21.00
2022-08-25T14:15:27.512Z,24.90
2022-08-25T14:18:09.453Z,20.50
2022-08-25T14:20:53.803Z,22.40
2022-08-25T14:23:23.906Z,23.10
2022-08-25T14:25:58.832Z,25.70
2022-08-25T14:28:32.505Z,19.70
2022-08-25T14:31:06.956Z,25.80
2022-08-25T14:33:52.914Z,25.20
2022-08-25T14:36:20.929Z,21.00
2022-08-25T14:38:54.760Z,21.50
2022-08-25T14:41:23.749Z,24.10
2022-08-25T14:43:50.620Z,25.20
2022-08-25T14:46:25.352Z,24.40
2022-08-25T14:48:59.464Z,26.00
2022-08-25T14:51:29.845Z,21.90
2022-08-25T14:54:00.716Z,25.50
2022-08-25T14:56:27.679Z,15.60
2022-08-25T14:58:56.571Z,25.20
2022-08-25T15:01:28.707Z,30.30
2022-08-25T15:04:10.087Z,26.30
2022-08-25T15:06:41.545Z,19.90
2022-08-25T15:09:16.455Z,21.40
2022-08-25T15:11:50.608Z,24.60
2022-08-25T15:14:19.195Z,23.10
2022-08-25T15:16:57.402Z,25.10
2022-08-25T15:19:28.007Z,26.10
2022-08-25T15:21:57.795Z,22.20
2022-08-25T15:24:26.218Z,22.00
2022-08-25T15:26:56.308Z,26.50
2022-08-25T15:29:26.261Z,23.70
2022-08-25T15:31:53.305Z,23.00
2022-08-25T15:34:20.354Z,25.90
2022-08-25T15:36:48.005Z,21.40
2022-08-25T15:39:15.772Z,22.40
2022-08-25T15:41:49.357Z,24.50
2022-08-25T15:44:16.564Z,23.20
2022-08-25T15:46:49.688Z,22.30
2022-08-25T15:49:23.241Z,28.40
2022-08-25T15:51:54.580Z,26.90
2022-08-25T15:54:23.354Z,26.50
2022-08-25T15:56:52.034Z,24.70
2022-08-25T15:59:21.637Z,18.90
2022-08-25T16:01:52.908Z,21.30
2022-08-25T16:04:22.195Z,23.50
2022-08-25T16:06:52.036Z,25.70
2022-08-25T16:09:23.117Z,24.60
2022-08-25T16:11:56.722Z,25.30
2022-08-25T16:14:27.828Z,19.80
2022-08-25T16:16:58.242Z,22.20
2022-08-25T16:19:28.670Z,23.30
2022-08-25T16:21:55.886Z,22.60
2022-08-25T16:24:22.742Z,17.40
2022-08-25T16:26:50.412Z,21.90
2022-08-25T16:29:18.882Z,20.90
2022-08-25T16:31:53.302Z,18.90
2022-08-25T16:34:28.407Z,17.10
2022-08-25T16:36:55.902Z,21.60
2022-08-25T16:39:24.015Z,20.50
2022-08-25T16:41:51.953Z,21.10
2022-08-25T16:44:19.820Z,19.10
2022-08-25T16:46:53.730Z,16.90
2022-08-25T16:49:21.161Z,20.80
2022-08-25T16:51:56.578Z,16.10
2022-08-25T16:54:44.562Z,22.70
2022-08-25T16:57:12.720Z,22.20
2022-08-25T16:59:39.478Z,20.40
2022-08-25T17:02:07.103Z,17.40
2022-08-25T17:04:34.372Z,20.30
2022-08-25T17:07:01.709Z,15.80
2022-08-25T17:09:29.658Z,21.40
2022-08-25T17:11:57.060Z,22.90
2022-08-25T17:14:25.655Z,21.90
2022-08-25T17:16:55.774Z,18.90
2022-08-25T17:19:25.910Z,20.70
2022-08-25T17:21:54.530Z,19.90
2022-08-25T17:24:29.649Z,19.30
2022-08-25T17:26:57.098Z,17.90
2022-08-25T17:29:24.419Z,22.60
2022-08-25T17:31:52.910Z,24.40
2022-08-25T17:34:23.058Z,15.90
2022-08-25T17:36:50.668Z,22.00
2022-08-25T17:39:22.047Z,22.70
2022-08-25T17:41:50.842Z,21.50
2022-08-25T17:44:19.411Z,19.30
2022-08-25T17:46:47.898Z,25.40
2022-08-25T17:49:18.512Z,14.50
2022-08-25T17:51:45.556Z,12.20
2022-08-25T17:54:12.910Z,13.60
2022-08-25T17:56:39.756Z,15.30
2022-08-25T17:59:06.594Z,17.70
2022-08-25T18:01:40.273Z,15.40
2022-08-25T18:04:16.901Z,16.10
2022-08-25T18:06:45.036Z,20.70
2022-08-25T18:09:11.644Z,14.40
2022-08-25T18:11:38.506Z,18.70
2022-08-25T18:14:06.680Z,17.70
2022-08-25T18:16:38.131Z,18.50
2022-08-25T18:19:06.440Z,20.60
2022-08-25T18:21:36.753Z,17.40
2022-08-25T18:24:04.463Z,21.50
2022-08-25T18:26:32.691Z,19.50
2022-08-25T18:29:00.132Z,18.90
2022-08-25T18:31:28.318Z,14.70
2022-08-25T18:33:56.503Z,15.40
2022-08-25T18:36:23.532Z,19.30
2022-08-25T18:39:09.205Z,19.10
2022-08-25T18:41:40.071Z,18.40
2022-08-25T18:44:08.556Z,18.30
2022-08-25T18:46:39.318Z,23.30
2022-08-25T18:49:06.513Z,20.70
2022-08-25T18:51:33.672Z,24.30
2022-08-25T18:54:01.562Z,17.90
2022-08-25T18:56:29.512Z,21.40
2022-08-25T18:58:57.769Z,20.00
2022-08-25T19:01:25.617Z,18.10
2022-08-25T19:03:53.515Z,24.10
2022-08-25T19:06:21.192Z,24.00
2022-08-25T19:08:48.731Z,21.20
2022-08-25T19:11:16.813Z,20.40
2022-08-25T19:13:44.674Z,22.20
2022-08-25T19:16:20.192Z,22.50
2022-08-25T19:18:49.055Z,22.20
2022-08-25T19:21:22.711Z,21.20
2022-08-25T19:23:51.272Z,19.50
2022-08-25T19:26:20.912Z,19.70
2022-08-25T19:28:49.846Z,22.30
2022-08-25T19:31:22.340Z,23.00
2022-08-25T19:33:51.883Z,22.40
2022-08-25T19:36:23.080Z,22.40
2022-08-25T19:38:51.843Z,22.70
2022-08-25T19:41:21.248Z,23.90
2022-08-25T19:43:56.657Z,24.70
2022-08-25T19:46:32.883Z,24.30
2022-08-25T19:49:08.504Z,20.50
2022-08-25T19:51:44.066Z,20.80
2022-08-25T19:54:16.496Z,21.00
2022-08-25T19:56:54.490Z,15.80
2022-08-25T19:59:25.391Z,15.60
2022-08-25T20:01:53.725Z,16.90
2022-08-25T20:04:20.940Z,17.90
2022-08-25T20:06:51.786Z,18.10
2022-08-25T20:09:35.708Z,20.70
2022-08-25T20:12:06.900Z,18.40
2022-08-25T20:14:34.910Z,18.00
2022-08-25T20:17:02.601Z,16.90
2022-08-25T20:19:31.070Z,17.00
2022-08-25T20:21:59.152Z,21.80
2022-08-25T20:24:45.353Z,19.30
2022-08-25T20:27:12.806Z,17.70
2022-08-25T20:29:40.469Z,15.90
2022-08-25T20:32:12.336Z,18.90
2022-08-25T20:34:41.359Z,19.40
2022-08-25T20:37:09.413Z,19.40
2022-08-25T20:39:37.286Z,18.20
2022-08-25T20:42:05.436Z,18.60
2022-08-25T20:44:39.939Z,20.90
2022-08-25T20:47:10.544Z,15.00
2022-08-25T20:49:39.520Z,18.70
2022-08-25T20:52:07.792Z,20.80
2022-08-25T20:54:35.011Z,19.50
2022-08-25T20:57:02.568Z,19.40
2022-08-25T20:59:29.533Z,17.90
2022-08-25T21:01:56.920Z,18.60
2022-08-25T21:04:26.767Z,19.30
2022-08-25T21:06:53.515Z,19.60
2022-08-25T21:09:23.441Z,18.90
2022-08-25T21:11:52.921Z,19.00
2022-08-25T21:14:20.694Z,19.60
2022-08-25T21:16:48.644Z,21.50
2022-08-25T21:19:17.900Z,17.80
2022-08-25T21:21:59.886Z,23.50
2022-08-25T21:24:28.051Z,21.10
2022-08-25T21:26:57.536Z,21.00
2022-08-25T21:29:25.645Z,24.90
2022-08-25T21:31:58.257Z,20.60
2022-08-25T21:34:25.752Z,22.80
2022-08-25T21:36:57.968Z,22.50
2022-08-25T21:39:27.594Z,20.70
2022-08-25T21:41:56.037Z,22.00
2022-08-25T21:44:23.372Z,22.40
2022-08-25T21:46:54.268Z,22.50
2022-08-25T21:49:23.912Z,24.80
2022-08-25T21:52:00.401Z,19.40
2022-08-25T21:54:28.699Z,19.80
2022-08-25T21:57:04.684Z,20.70
2022-08-25T21:59:33.798Z,20.40
2022-08-25T22:02:07.563Z,23.30
2022-08-25T22:04:34.857Z,18.40
2022-08-25T22:07:02.532Z,19.80
2022-08-25T22:09:30.391Z,31.40
2022-08-25T22:11:58.727Z,18.50
2022-08-25T22:14:26.735Z,19.60
2022-08-25T22:16:54.476Z,17.90
2022-08-25T22:19:22.828Z,25.30
2022-08-25T22:21:50.844Z,19.80
2022-08-25T22:24:19.031Z,21.80
2022-08-25T22:26:47.405Z,20.00
2022-08-25T22:29:20.736Z,19.80
2022-08-25T22:31:59.313Z,20.30
2022-08-25T22:34:32.622Z,21.00
2022-08-25T22:37:03.873Z,20.50
2022-08-25T22:39:31.721Z,21.20
2022-08-25T22:42:00.320Z,19.50
2022-08-25T22:44:26.853Z,20.40
2022-08-25T22:46:53.801Z,24.90
2022-08-25T22:49:21.653Z,21.70
2022-08-25T22:51:49.734Z,22.80
2022-08-25T22:54:17.991Z,25.00
2022-08-25T22:56:45.696Z,22.50
2022-08-25T22:59:13.668Z,24.80
2022-08-25T23:01:41.911Z,23.30
2022-08-25T23:04:09.252Z,26.20
2022-08-25T23:06:37.957Z,23.30
2022-08-25T23:09:07.651Z,22.00
2022-08-25T23:11:35.572Z,28.10
2022-08-25T23:14:09.948Z,25.60
2022-08-25T23:16:41.963Z,27.40
2022-08-25T23:19:10.612Z,19.00
2022-08-25T23:21:56.844Z,21.00
2022-08-25T23:24:29.382Z,25.00
2022-08-25T23:27:01.437Z,30.80
2022-08-25T23:29:29.631Z,27.50
2022-08-25T23:31:57.433Z,27.00
2022-08-25T23:34:24.916Z,21.00
2022-08-25T23:36:52.175Z,24.00
2022-08-25T23:39:19.252Z,20.30
2022-08-25T23:41:50.014Z,21.90
2022-08-25T23:44:18.584Z,22.90
2022-08-25T23:46:47.475Z,20.00
2022-08-25T23:49:18.491Z,19.10
2022-08-25T23:51:50.223Z,18.10
2022-08-25T23:54:20.352Z,18.40
2022-08-25T23:56:51.766Z,17.50
2022-08-25T23:59:24.039Z,20.90
